TimeCST,TemperatureF,Dew PointF,Humidity,Sea Level PressureIn,VisibilityMPH,Wind Direction,Wind SpeedMPH,Gust SpeedMPH,PrecipitationIn,Events,Conditions,WindDirDegrees,DateUTC
12:15 AM,48.2,46.4,93,30.12,10.0,West,10.4,18.4,N/A,Rain,Light Rain,280,2013-01-14 06:15:00
12:35 AM,46.4,46.4,100,30.13,10.0,WNW,8.1,-,N/A,,Drizzle,300,2013-01-14 06:35:00
12:55 AM,46.4,44.6,93,30.14,10.0,NW,5.8,-,N/A,Rain,Rain,310,2013-01-14 06:55:00
1:15 AM,44.6,44.6,100,30.14,7.0,Calm,Calm,-,N/A,Rain,Rain,0,2013-01-14 07:15:00
1:35 AM,44.6,44.6,100,30.16,4.0,Calm,Calm,-,0.03,Rain,Heavy Rain,0,2013-01-14 07:35:00
1:55 AM,44.6,44.6,100,30.16,7.0,NNE,5.8,-,0.01,Rain,Rain,30,2013-01-14 07:55:00
2:15 AM,44.6,44.6,100,30.17,10.0,NNE,8.1,-,0.02,Rain,Light Rain,30,2013-01-14 08:15:00
2:55 AM,44.6,44.6,100,30.16,10.0,NNE,4.6,-,N/A,,Overcast,30,2013-01-14 08:55:00
3:15 AM,44.6,42.8,93,30.17,10.0,NNW,3.5,-,N/A,,Overcast,330,2013-01-14 09:15:00
3:35 AM,44.6,42.8,93,30.16,10.0,NNW,4.6,-,N/A,,Overcast,340,2013-01-14 09:35:00
4:15 AM,44.6,42.8,93,30.17,10.0,North,-9999.0,-,N/A,,Overcast,0,2013-01-14 10:15:00
4:35 AM,44.6,42.8,93,30.17,10.0,NNE,6.9,-,N/A,,Overcast,20,2013-01-14 10:35:00
4:55 AM,42.8,42.8,100,30.18,10.0,NNE,6.9,-,N/A,,Overcast,20,2013-01-14 10:55:00
5:15 AM,42.8,42.8,100,30.18,10.0,North,8.1,-,N/A,,Overcast,360,2013-01-14 11:15:00
5:35 AM,42.8,42.8,100,30.19,10.0,North,6.9,-,N/A,,Overcast,360,2013-01-14 11:35:00
5:55 AM,42.8,42.8,100,30.19,10.0,North,4.6,-,N/A,,Overcast,360,2013-01-14 11:55:00
6:15 AM,42.8,42.8,100,30.20,10.0,North,8.1,-,N/A,,Overcast,10,2013-01-14 12:15:00
6:35 AM,42.8,42.8,100,30.21,10.0,North,4.6,-,N/A,,Overcast,10,2013-01-14 12:35:00
6:55 AM,42.8,42.8,100,30.22,7.0,NNE,5.8,-,N/A,,Light Drizzle,20,2013-01-14 12:55:00
7:15 AM,42.8,42.8,100,30.22,7.0,NNW,8.1,-,N/A,Rain,Light Rain,340,2013-01-14 13:15:00
7:35 AM,42.8,42.8,100,30.23,5.0,North,4.6,-,N/A,,Overcast,10,2013-01-14 13:35:00
7:55 AM,42.8,42.8,100,30.25,7.0,North,3.5,-,N/A,,Overcast,350,2013-01-14 13:55:00
8:15 AM,42.8,42.8,100,30.26,7.0,Calm,Calm,-,N/A,,Overcast,0,2013-01-14 14:15:00
8:35 AM,42.8,42.8,100,30.27,10.0,NNE,3.5,-,N/A,,Overcast,30,2013-01-14 14:35:00
8:55 AM,42.8,42.8,100,30.26,10.0,NNE,6.9,-,N/A,,Overcast,30,2013-01-14 14:55:00
9:15 AM,42.8,42.8,100,30.26,10.0,NE,5.8,-,N/A,,Overcast,40,2013-01-14 15:15:00
9:35 AM,42.8,42.8,100,30.26,10.0,NNE,6.9,-,N/A,,Overcast,20,2013-01-14 15:35:00
9:55 AM,42.8,42.8,100,30.24,10.0,NNE,9.2,-,N/A,,Overcast,20,2013-01-14 15:55:00
10:15 AM,42.8,42.8,100,30.24,10.0,North,5.8,-,N/A,,Overcast,360,2013-01-14 16:15:00
10:35 AM,42.8,42.8,100,30.23,10.0,North,4.6,-,N/A,,Overcast,10,2013-01-14 16:35:00
10:55 AM,42.8,42.8,100,30.21,10.0,North,4.6,-,N/A,,Overcast,360,2013-01-14 16:55:00
11:15 AM,42.8,42.8,100,30.19,10.0,North,4.6,-,N/A,,Overcast,360,2013-01-14 17:15:00
11:35 AM,42.8,42.8,100,30.19,5.0,Calm,Calm,-,N/A,,Overcast,0,2013-01-14 17:35:00
11:55 AM,42.8,42.8,100,30.18,10.0,Calm,Calm,-,N/A,,Overcast,0,2013-01-14 17:55:00
12:15 PM,44.6,42.8,93,30.18,10.0,North,3.5,-,N/A,,Overcast,10,2013-01-14 18:15:00
12:35 PM,44.6,42.8,93,30.17,10.0,NE,4.6,-,N/A,,Overcast,40,2013-01-14 18:35:00
12:55 PM,44.6,42.8,93,30.16,10.0,ENE,5.8,-,N/A,,Overcast,60,2013-01-14 18:55:00
1:15 PM,44.6,42.8,93,30.15,10.0,North,5.8,-,N/A,,Overcast,10,2013-01-14 19:15:00
1:35 PM,44.6,42.8,93,30.16,10.0,NNE,6.9,-,N/A,,Overcast,30,2013-01-14 19:35:00
1:55 PM,42.8,42.8,100,30.16,10.0,NNE,9.2,-,N/A,,Overcast,30,2013-01-14 19:55:00
2:15 PM,42.8,42.8,100,30.17,10.0,NNE,3.5,-,N/A,Rain,Light Rain,20,2013-01-14 20:15:00
2:35 PM,42.8,42.8,100,30.17,10.0,NE,6.9,-,N/A,Rain,Light Rain,40,2013-01-14 20:35:00
2:55 PM,42.8,41.0,93,30.21,10.0,NNE,5.8,-,N/A,Rain,Light Rain,30,2013-01-14 20:55:00
3:15 PM,42.8,41.0,93,30.24,7.0,NNW,6.9,-,0.01,Rain,Rain,330,2013-01-14 21:15:00
3:35 PM,41.0,39.2,93,30.25,10.0,Calm,Calm,-,0.03,Rain,Rain,0,2013-01-14 21:35:00
4:15 PM,39.2,37.4,93,30.27,10.0,North,12.7,-,N/A,Rain,Light Rain,10,2013-01-14 22:15:00
4:35 PM,37.4,37.4,100,30.28,10.0,North,11.5,-,N/A,Rain,Light Rain,360,2013-01-14 22:35:00
4:55 PM,37.4,37.4,100,30.30,7.0,North,6.9,-,N/A,Rain,Rain,350,2013-01-14 22:55:00
5:15 PM,37.4,37.4,100,30.30,7.0,North,3.5,-,0.02,Rain,Rain,360,2013-01-14 23:15:00
5:35 PM,37.4,37.4,100,30.33,5.0,North,8.1,-,0.02,Rain,Rain,10,2013-01-14 23:35:00
5:55 PM,37.4,37.4,100,30.32,5.0,NNE,5.8,-,N/A,Rain,Rain,20,2013-01-14 23:55:00
6:15 PM,37.4,35.6,93,30.31,4.0,NNE,6.9,-,0.03,Rain,Rain,20,2013-01-15 00:15:00
6:35 PM,37.4,35.6,93,30.34,5.0,North,5.8,-,0.04,Rain,Rain,350,2013-01-15 00:35:00
6:55 PM,37.4,35.6,93,30.35,4.0,North,3.5,-,0.01,Rain,Rain,350,2013-01-15 00:55:00
7:15 PM,37.4,35.6,93,30.30,3.0,Calm,Calm,-,0.04,Rain,Rain,0,2013-01-15 01:15:00
7:35 PM,37.4,35.6,93,30.29,5.0,Calm,Calm,-,0.05,Rain,Rain,0,2013-01-15 01:35:00
7:55 PM,37.4,35.6,93,30.26,10.0,Calm,Calm,-,N/A,Rain,Light Rain,0,2013-01-15 01:55:00
8:15 PM,37.4,35.6,93,30.25,7.0,SW,3.5,-,N/A,Rain,Light Rain,220,2013-01-15 02:15:00
8:35 PM,37.4,37.4,100,30.24,5.0,Calm,Calm,-,N/A,Rain,Rain,0,2013-01-15 02:35:00
8:55 PM,37.4,37.4,100,30.24,10.0,West,5.8,-,N/A,Rain,Light Rain,260,2013-01-15 02:55:00
9:15 PM,39.2,39.2,100,30.21,10.0,WSW,4.6,-,N/A,Rain,Rain,250,2013-01-15 03:15:00
9:35 PM,39.2,39.2,100,30.20,10.0,West,4.6,-,N/A,,Drizzle,260,2013-01-15 03:35:00
9:55 PM,41.0,39.2,93,30.19,10.0,South,5.8,-,N/A,,Overcast,170,2013-01-15 03:55:00
10:15 PM,41.0,39.2,93,30.18,10.0,SW,4.6,-,N/A,,Drizzle,220,2013-01-15 04:15:00
10:35 PM,41.0,39.2,93,30.19,10.0,West,3.5,-,N/A,,Overcast,280,2013-01-15 04:35:00
10:55 PM,41.0,39.2,93,30.19,7.0,Calm,Calm,-,N/A,Rain,Rain,0,2013-01-15 04:55:00
11:15 PM,41.0,39.2,93,30.18,10.0,Calm,Calm,-,N/A,Rain,Rain,0,2013-01-15 05:15:00
11:35 PM,41.0,39.2,93,30.18,10.0,Calm,Calm,-,N/A,,Overcast,0,2013-01-15 05:35:00
11:55 PM,39.2,39.2,100,30.16,10.0,East,4.6,-,N/A,,Overcast,90,2013-01-15 05:55:00